createdAt,value
2022-09-10T00:01:21.331Z,17.30
2022-09-10T00:03:49.983Z,17.30
2022-09-10T00:06:19.976Z,17.30
2022-09-10T00:08:49.197Z,17.20
2022-09-10T00:11:17.318Z,17.20
2022-09-10T00:13:45.588Z,17.30
2022-09-10T00:16:15.768Z,17.20
2022-09-10T00:18:43.923Z,17.20
2022-09-10T00:21:14.560Z,17.20
2022-09-10T00:23:45.685Z,17.20
2022-09-10T00:26:16.740Z,17.20
2022-09-10T00:28:44.679Z,17.20
2022-09-10T00:31:13.241Z,17.20
2022-09-10T00:33:41.697Z,17.20
2022-09-10T00:36:16.881Z,17.20
2022-09-10T00:38:46.451Z,17.10
2022-09-10T00:41:14.709Z,17.10
2022-09-10T00:43:54.521Z,17.10
2022-09-10T00:46:43.365Z,17.10
2022-09-10T00:49:17.266Z,17.10
2022-09-10T00:51:47.084Z,17.10
2022-09-10T00:54:20.413Z,17.10
2022-09-10T00:56:49.517Z,17.10
2022-09-10T00:59:21.173Z,17.10
2022-09-10T01:01:49.463Z,17.00
2022-09-10T01:04:17.470Z,17.00
2022-09-10T01:06:46.974Z,17.00
2022-09-10T01:09:17.077Z,17.00
2022-09-10T01:11:58.649Z,17.00
2022-09-10T01:14:41.966Z,17.00
2022-09-10T01:17:18.331Z,17.00
2022-09-10T01:20:26.518Z,17.00
2022-09-10T01:23:15.662Z,17.00
2022-09-10T01:25:55.922Z,17.00
2022-09-10T01:28:30.233Z,17.00
2022-09-10T01:31:06.262Z,17.00
2022-09-10T01:33:41.746Z,16.90
2022-09-10T01:36:15.005Z,16.90
2022-09-10T01:38:43.919Z,17.00
2022-09-10T01:41:11.983Z,16.90
2022-09-10T01:43:41.953Z,17.00
2022-09-10T01:46:22.204Z,16.90
2022-09-10T01:49:05.761Z,16.90
2022-09-10T01:51:49.776Z,16.90
2022-09-10T01:54:30.137Z,16.90
2022-09-10T01:57:08.043Z,16.90
2022-09-10T01:59:41.940Z,16.90
2022-09-10T02:02:15.722Z,16.90
2022-09-10T02:04:46.074Z,16.90
2022-09-10T02:07:15.865Z,16.90
2022-09-10T02:09:43.842Z,16.90
2022-09-10T02:12:20.716Z,16.90
2022-09-10T02:14:51.279Z,16.90
2022-09-10T02:17:20.189Z,16.80
2022-09-10T02:19:51.491Z,16.90
2022-09-10T02:22:20.142Z,16.90
2022-09-10T02:24:48.034Z,16.80
2022-09-10T02:27:15.986Z,16.80
2022-09-10T02:29:44.178Z,16.80
2022-09-10T02:32:13.375Z,16.80
2022-09-10T02:34:41.176Z,16.80
2022-09-10T02:37:09.000Z,16.70
2022-09-10T02:39:36.887Z,16.80
2022-09-10T02:42:05.148Z,16.80
2022-09-10T02:44:32.970Z,16.80
2022-09-10T02:47:00.876Z,16.80
2022-09-10T02:49:30.106Z,16.80
2022-09-10T02:51:58.133Z,16.80
2022-09-10T02:54:26.284Z,16.80
2022-09-10T02:56:54.125Z,16.80
2022-09-10T02:59:23.014Z,16.80
2022-09-10T03:01:50.907Z,16.80
2022-09-10T03:04:18.771Z,16.80
2022-09-10T03:06:49.455Z,16.80
2022-09-10T03:09:17.433Z,16.80
2022-09-10T03:11:46.484Z,16.80
2022-09-10T03:14:20.148Z,16.80
2022-09-10T03:16:48.527Z,16.70
2022-09-10T03:19:17.409Z,16.70
2022-09-10T03:21:47.537Z,16.70
2022-09-10T03:24:16.904Z,16.70
2022-09-10T03:26:44.766Z,16.70
2022-09-10T03:29:13.225Z,16.70
2022-09-10T03:31:41.178Z,16.70
2022-09-10T03:34:12.513Z,16.70
2022-09-10T03:36:40.394Z,16.70
2022-09-10T03:39:08.209Z,16.70
2022-09-10T03:41:37.416Z,16.70
2022-09-10T03:44:05.545Z,16.70
2022-09-10T03:46:33.566Z,16.70
2022-09-10T03:49:02.281Z,16.70
2022-09-10T03:51:31.064Z,16.80
2022-09-10T03:53:59.930Z,16.70
2022-09-10T03:56:28.488Z,16.70
2022-09-10T03:58:57.882Z,16.70
2022-09-10T04:01:25.793Z,16.70
2022-09-10T04:03:56.734Z,16.70
2022-09-10T04:06:24.586Z,16.80
2022-09-10T04:08:53.478Z,16.70
2022-09-10T04:11:23.863Z,16.70
2022-09-10T04:13:52.160Z,16.70
2022-09-10T04:16:22.172Z,16.70
2022-09-10T04:18:50.529Z,16.70
2022-09-10T04:21:18.778Z,16.70
2022-09-10T04:23:47.638Z,16.70
2022-09-10T04:26:17.608Z,16.70
2022-09-10T04:28:45.856Z,16.70
2022-09-10T04:31:14.331Z,16.70
2022-09-10T04:33:44.857Z,16.70
2022-09-10T04:36:14.550Z,16.70
2022-09-10T04:38:43.355Z,16.70
2022-09-10T04:41:11.183Z,16.70
2022-09-10T04:43:39.587Z,16.70
2022-09-10T04:46:07.798Z,16.70
2022-09-10T04:48:36.048Z,16.70
2022-09-10T04:51:16.034Z,16.70
2022-09-10T04:53:44.667Z,16.70
2022-09-10T04:56:12.662Z,16.70
2022-09-10T04:58:41.119Z,16.70
2022-09-10T05:01:09.368Z,16.70
2022-09-10T05:03:37.691Z,16.70
2022-09-10T05:06:07.312Z,16.70
2022-09-10T05:08:35.212Z,16.60
2022-09-10T05:11:03.231Z,16.70
2022-09-10T05:13:31.791Z,16.70
2022-09-10T05:16:00.064Z,16.70
2022-09-10T05:18:28.009Z,16.70
2022-09-10T05:20:55.936Z,16.70
2022-09-10T05:23:25.577Z,16.70
2022-09-10T05:25:53.718Z,16.70
2022-09-10T05:28:22.616Z,16.70
2022-09-10T05:30:51.973Z,16.70
2022-09-10T05:33:19.935Z,16.70
2022-09-10T05:35:51.595Z,16.60
2022-09-10T05:38:19.904Z,16.70
2022-09-10T05:40:49.139Z,16.70
2022-09-10T05:43:16.959Z,16.60
2022-09-10T05:45:44.815Z,16.70
2022-09-10T05:48:13.247Z,16.60
2022-09-10T05:50:41.151Z,16.60
2022-09-10T05:53:10.256Z,16.60
2022-09-10T05:55:38.193Z,16.70
2022-09-10T05:58:07.333Z,16.60
2022-09-10T06:00:36.417Z,16.60
2022-09-10T06:03:05.563Z,16.70
2022-09-10T06:05:33.528Z,16.60
2022-09-10T06:08:05.388Z,16.70
2022-09-10T06:10:36.344Z,16.60
2022-09-10T06:13:04.150Z,16.60
2022-09-10T06:15:35.307Z,16.60
2022-09-10T06:18:03.037Z,16.60
2022-09-10T06:20:30.981Z,16.60
2022-09-10T06:22:58.911Z,16.60
2022-09-10T06:25:27.311Z,16.60
2022-09-10T06:27:55.167Z,16.60
2022-09-10T06:30:23.004Z,16.60
2022-09-10T06:32:52.167Z,16.60
2022-09-10T06:35:20.034Z,16.60
2022-09-10T06:37:47.887Z,16.60
2022-09-10T06:40:16.117Z,16.60
2022-09-10T06:42:43.991Z,16.70
2022-09-10T06:45:12.125Z,16.70
2022-09-10T06:48:32.390Z,16.70
2022-09-10T06:50:29.222Z,16.70
2022-09-10T06:52:57.121Z,16.70
2022-09-10T06:55:24.934Z,16.70
2022-09-10T06:57:52.849Z,16.70
2022-09-10T07:00:21.161Z,16.70
2022-09-10T07:02:50.413Z,16.70
2022-09-10T07:05:18.346Z,16.70
2022-09-10T07:07:47.603Z,16.70
2022-09-10T07:10:15.589Z,16.70
2022-09-10T07:12:44.668Z,16.70
2022-09-10T07:15:12.530Z,16.70
2022-09-10T07:17:40.351Z,16.70
2022-09-10T07:20:09.143Z,16.70
2022-09-10T07:22:37.749Z,16.70
2022-09-10T07:25:08.348Z,16.70
2022-09-10T07:27:36.182Z,16.70
2022-09-10T07:30:04.209Z,16.70
2022-09-10T07:32:35.046Z,16.70
2022-09-10T07:35:02.897Z,16.70
2022-09-10T07:37:30.796Z,16.80
2022-09-10T07:39:58.647Z,16.80
2022-09-10T07:42:28.397Z,16.80
2022-09-10T07:44:56.247Z,16.80
2022-09-10T07:47:24.264Z,16.80
2022-09-10T07:49:53.231Z,16.80
2022-09-10T07:52:21.139Z,16.80
2022-09-10T07:54:49.074Z,16.80
2022-09-10T07:57:17.073Z,16.90
2022-09-10T07:59:46.349Z,16.90
2022-09-10T08:02:16.063Z,16.90
2022-09-10T08:04:43.975Z,16.90
2022-09-10T08:07:11.859Z,16.90
2022-09-10T08:09:39.828Z,16.90
2022-09-10T08:12:08.031Z,16.90
2022-09-10T08:14:37.966Z,16.90
2022-09-10T08:17:08.071Z,17.00
2022-09-10T08:19:36.822Z,16.90
2022-09-10T08:22:05.062Z,16.90
2022-09-10T08:24:32.956Z,16.90
2022-09-10T08:27:00.747Z,16.90
2022-09-10T08:29:28.679Z,16.90
2022-09-10T08:31:56.554Z,17.00
2022-09-10T08:34:26.257Z,17.00
2022-09-10T08:36:55.263Z,17.00
2022-09-10T08:39:23.702Z,17.00
2022-09-10T08:41:56.502Z,17.00
2022-09-10T08:44:35.549Z,17.00
2022-09-10T08:47:17.707Z,17.10
2022-09-10T08:49:50.934Z,17.10
2022-09-10T08:52:29.757Z,17.10
2022-09-10T08:55:05.672Z,17.10
2022-09-10T08:57:37.822Z,17.10
2022-09-10T09:00:08.678Z,17.20
2022-09-10T09:02:49.579Z,17.20
2022-09-10T09:05:20.050Z,17.20
2022-09-10T09:07:49.390Z,17.30
2022-09-10T09:10:27.816Z,17.30
2022-09-10T09:13:17.763Z,17.40
2022-09-10T09:15:53.365Z,17.40
2022-09-10T09:18:27.946Z,17.40
2022-09-10T09:21:01.014Z,17.50
2022-09-10T09:23:44.624Z,17.50
2022-09-10T09:26:19.728Z,17.50
2022-09-10T09:28:51.963Z,17.60
2022-09-10T09:31:26.654Z,17.60
2022-09-10T09:34:01.072Z,17.60
2022-09-10T09:36:38.257Z,17.70
2022-09-10T09:39:17.731Z,17.70
2022-09-10T09:41:55.525Z,17.70
2022-09-10T09:44:28.253Z,17.70
2022-09-10T09:46:56.369Z,17.80
2022-09-10T09:49:26.129Z,17.80
2022-09-10T09:51:55.356Z,17.80
2022-09-10T09:57:20.320Z,17.80
2022-09-10T09:59:49.349Z,17.90
2022-09-10T10:02:21.271Z,17.90
2022-09-10T10:05:00.105Z,17.90
2022-09-10T10:07:32.424Z,18.00
2022-09-10T10:10:01.405Z,18.00
2022-09-10T10:12:32.608Z,18.00
2022-09-10T10:15:00.523Z,18.00
2022-09-10T10:17:37.484Z,18.10
2022-09-10T10:20:12.435Z,18.20
2022-09-10T10:22:42.733Z,18.20
2022-09-10T10:25:45.458Z,18.20
2022-09-10T10:28:17.311Z,18.20
2022-09-10T10:30:45.311Z,18.30
2022-09-10T10:33:19.566Z,18.30
2022-09-10T10:35:51.512Z,18.30
2022-09-10T10:38:32.767Z,18.30
2022-09-10T10:41:09.521Z,18.40
2022-09-10T10:43:48.247Z,18.30
2022-09-10T10:46:21.277Z,18.30
2022-09-10T10:49:04.471Z,18.30
2022-09-10T10:51:42.735Z,18.30
2022-09-10T10:54:28.357Z,18.30
2022-09-10T10:57:05.725Z,18.30
2022-09-10T10:59:52.987Z,18.30
2022-09-10T11:02:27.614Z,18.30
2022-09-10T11:04:58.173Z,18.30
2022-09-10T11:07:30.628Z,18.30
2022-09-10T11:10:05.317Z,18.40
2022-09-10T11:12:36.858Z,18.40
2022-09-10T11:15:18.850Z,18.40
2022-09-10T11:17:51.829Z,18.40
2022-09-10T11:20:29.057Z,18.40
2022-09-10T11:23:04.040Z,18.50
2022-09-10T11:25:38.318Z,18.50
2022-09-10T11:28:12.771Z,18.40
2022-09-10T11:30:43.714Z,18.50
2022-09-10T11:33:18.360Z,18.50
2022-09-10T11:35:50.670Z,18.60
2022-09-10T11:38:23.053Z,18.60
2022-09-10T11:41:03.296Z,18.50
2022-09-10T11:43:38.645Z,18.60
2022-09-10T11:46:10.949Z,18.60
2022-09-10T11:48:43.388Z,18.70
2022-09-10T11:51:19.808Z,18.70
2022-09-10T11:53:47.663Z,18.70
2022-09-10T11:56:47.448Z,18.70
2022-09-10T11:59:31.338Z,18.70
2022-09-10T12:02:48.262Z,18.80
2022-09-10T12:05:23.582Z,18.70
2022-09-10T12:07:59.638Z,18.70
2022-09-10T12:10:33.506Z,18.70
2022-09-10T12:13:08.930Z,18.70
2022-09-10T12:15:38.201Z,18.80
2022-09-10T12:18:13.326Z,18.80
2022-09-10T12:20:45.548Z,18.80
2022-09-10T12:23:18.475Z,18.80
2022-09-10T12:25:46.733Z,18.80
2022-09-10T12:28:50.674Z,18.90
2022-09-10T12:31:21.007Z,18.90
2022-09-10T12:34:08.626Z,18.90
2022-09-10T12:37:19.170Z,18.90
2022-09-10T12:39:47.082Z,19.00
2022-09-10T12:42:29.976Z,19.00
2022-09-10T12:44:57.999Z,19.00
2022-09-10T12:47:57.306Z,19.10
2022-09-10T12:50:36.899Z,19.00
2022-09-10T12:53:40.539Z,19.00
2022-09-10T12:56:45.552Z,19.00
2022-09-10T12:59:56.096Z,19.00
2022-09-10T13:02:30.906Z,19.00
2022-09-10T13:05:03.137Z,19.00
2022-09-10T13:07:40.232Z,19.10
2022-09-10T13:10:21.693Z,19.20
2022-09-10T13:12:52.970Z,19.30
2022-09-10T13:15:23.955Z,19.30
2022-09-10T13:18:24.327Z,19.30
2022-09-10T13:20:53.669Z,19.30
2022-09-10T13:23:37.521Z,19.30
2022-09-10T13:26:48.362Z,19.30
2022-09-10T13:29:35.576Z,19.30
2022-09-10T13:32:08.166Z,19.30
2022-09-10T13:35:09.214Z,19.30
2022-09-10T13:37:52.448Z,19.20
2022-09-10T13:40:34.770Z,19.20
2022-09-10T13:43:27.428Z,19.10
2022-09-10T13:46:00.577Z,19.00
2022-09-10T13:48:31.070Z,19.00
2022-09-10T13:51:06.829Z,19.00
2022-09-10T13:53:41.443Z,19.00
2022-09-10T13:56:17.790Z,19.10
2022-09-10T13:58:50.337Z,19.20
2022-09-10T14:01:18.666Z,19.20
2022-09-10T14:03:46.691Z,19.20
2022-09-10T14:06:19.312Z,19.20
2022-09-10T14:08:56.233Z,19.20
2022-09-10T14:11:26.335Z,19.10
2022-09-10T14:14:00.528Z,19.10
2022-09-10T14:16:33.374Z,19.10
2022-09-10T14:19:04.731Z,19.10
2022-09-10T14:21:32.911Z,19.10
2022-09-10T14:24:02.494Z,19.10
2022-09-10T14:26:33.632Z,19.10
2022-09-10T14:29:03.415Z,19.10
2022-09-10T14:31:55.102Z,19.10
2022-09-10T14:34:32.578Z,19.10
2022-09-10T14:37:01.444Z,19.00
2022-09-10T14:39:30.954Z,19.00
2022-09-10T14:42:23.856Z,19.10
2022-09-10T14:44:52.539Z,19.10
2022-09-10T14:47:29.730Z,19.20
2022-09-10T14:50:34.558Z,19.40
2022-09-10T14:53:03.761Z,19.50
2022-09-10T14:55:33.981Z,19.70
2022-09-10T14:58:01.891Z,19.60
2022-09-10T15:00:30.783Z,19.70
2022-09-10T15:02:58.781Z,19.70
2022-09-10T15:05:27.092Z,19.70
2022-09-10T15:07:55.796Z,19.80
2022-09-10T15:10:23.671Z,19.90
2022-09-10T15:12:53.132Z,19.90
2022-09-10T15:15:21.253Z,19.90
2022-09-10T15:17:49.140Z,20.00
2022-09-10T15:20:17.810Z,20.00
2022-09-10T15:22:46.132Z,20.00
2022-09-10T15:25:33.877Z,20.00
2022-09-10T15:28:05.563Z,19.90
2022-09-10T15:30:34.049Z,19.80
2022-09-10T15:33:04.059Z,19.80
2022-09-10T15:35:32.138Z,19.70
2022-09-10T15:38:01.657Z,19.70
2022-09-10T15:40:29.691Z,19.70
2022-09-10T15:42:57.717Z,19.70
2022-09-10T15:45:27.139Z,19.70
2022-09-10T15:47:55.049Z,19.70
2022-09-10T15:50:22.965Z,19.70
2022-09-10T15:52:50.808Z,19.70
2022-09-10T15:55:19.188Z,19.70
2022-09-10T15:57:49.694Z,19.70
2022-09-10T16:00:17.977Z,19.60
2022-09-10T16:02:51.825Z,19.60
2022-09-10T16:05:21.032Z,19.60
2022-09-10T16:07:49.926Z,19.60
2022-09-10T16:10:18.224Z,19.50
2022-09-10T16:12:46.110Z,19.50
2022-09-10T16:15:14.052Z,19.50
2022-09-10T16:17:42.175Z,19.50
2022-09-10T16:20:11.900Z,19.50
2022-09-10T16:22:39.818Z,19.50
2022-09-10T16:25:08.750Z,19.50
2022-09-10T16:27:39.435Z,19.50
2022-09-10T16:30:11.047Z,19.40
2022-09-10T16:32:39.068Z,19.40
2022-09-10T16:35:08.557Z,19.40
2022-09-10T16:37:37.817Z,19.40
2022-09-10T16:40:07.192Z,19.30
2022-09-10T16:42:35.049Z,19.30
2022-09-10T16:45:02.882Z,19.20
2022-09-10T16:47:30.740Z,19.20
2022-09-10T16:49:58.723Z,19.20
2022-09-10T16:52:26.586Z,19.20
2022-09-10T16:54:57.486Z,19.20
2022-09-10T16:57:25.376Z,19.20
2022-09-10T16:59:53.258Z,19.20
2022-09-10T17:02:21.175Z,19.10
2022-09-10T17:04:49.053Z,19.20
2022-09-10T17:07:16.932Z,19.20
2022-09-10T17:09:44.766Z,19.10
2022-09-10T17:12:13.976Z,19.20
2022-09-10T17:14:42.354Z,19.10
2022-09-10T17:17:10.685Z,19.10
2022-09-10T17:19:38.923Z,19.10
2022-09-10T17:22:07.074Z,19.00
2022-09-10T17:24:35.027Z,19.00
2022-09-10T17:27:03.266Z,19.00
2022-09-10T17:29:32.855Z,19.00
2022-09-10T17:32:00.683Z,18.90
2022-09-10T17:34:28.579Z,18.90
2022-09-10T17:36:56.437Z,18.80
2022-09-10T17:39:28.024Z,18.80
2022-09-10T17:41:56.178Z,18.80
2022-09-10T17:44:25.645Z,18.80
2022-09-10T17:46:55.105Z,18.80
2022-09-10T17:49:23.541Z,18.80
2022-09-10T17:51:51.830Z,18.80
2022-09-10T17:54:20.021Z,18.80
2022-09-10T17:56:47.820Z,18.70
2022-09-10T17:59:15.649Z,18.70
2022-09-10T18:01:43.734Z,18.70
2022-09-10T18:04:14.269Z,18.70
2022-09-10T18:06:43.659Z,18.70
2022-09-10T18:09:12.370Z,18.70
2022-09-10T18:11:42.217Z,18.60
2022-09-10T18:14:14.808Z,18.60
2022-09-10T18:16:42.612Z,18.60
2022-09-10T18:19:16.173Z,18.60
2022-09-10T18:21:45.595Z,18.60
2022-09-10T18:24:15.164Z,18.60
2022-09-10T18:26:45.393Z,18.60
2022-09-10T18:29:15.119Z,18.50
2022-09-10T18:31:45.248Z,18.60
2022-09-10T18:34:22.106Z,18.50
2022-09-10T18:36:53.400Z,18.50
2022-09-10T18:39:22.206Z,18.50
2022-09-10T18:41:50.014Z,18.50
2022-09-10T18:44:20.660Z,18.50
2022-09-10T18:46:49.753Z,18.50
2022-09-10T18:49:21.435Z,18.50
2022-09-10T18:51:50.012Z,18.50
2022-09-10T18:54:18.725Z,18.50
2022-09-10T18:56:48.043Z,18.40
2022-09-10T18:59:17.257Z,18.40
2022-09-10T19:01:45.550Z,18.40
2022-09-10T19:04:15.831Z,18.40
2022-09-10T19:06:47.385Z,18.40
2022-09-10T19:09:17.111Z,18.40
2022-09-10T19:11:46.574Z,18.40
2022-09-10T19:14:18.000Z,18.40
2022-09-10T19:16:47.172Z,18.40
2022-09-10T19:19:18.333Z,18.30
2022-09-10T19:21:47.995Z,18.30
2022-09-10T19:24:16.864Z,18.30
2022-09-10T19:26:45.713Z,18.30
2022-09-10T19:29:17.416Z,18.30
2022-09-10T19:31:46.473Z,18.30
2022-09-10T19:34:16.035Z,18.30
2022-09-10T19:36:44.685Z,18.30
2022-09-10T19:39:15.808Z,18.30
2022-09-10T19:41:44.440Z,18.30
2022-09-10T19:44:13.954Z,18.30
2022-09-10T19:46:41.955Z,18.30
2022-09-10T19:49:10.090Z,18.20
2022-09-10T19:51:40.557Z,18.20
2022-09-10T19:54:08.945Z,18.20
2022-09-10T19:56:41.140Z,18.20
2022-09-10T19:59:09.745Z,18.20
2022-09-10T20:01:39.922Z,18.20
2022-09-10T20:04:10.362Z,18.10
2022-09-10T20:06:38.934Z,18.20
2022-09-10T20:09:09.821Z,18.10
2022-09-10T20:11:39.418Z,18.10
2022-09-10T20:14:09.407Z,18.10
2022-09-10T20:16:38.551Z,18.10
2022-09-10T20:19:07.657Z,18.10
2022-09-10T20:21:37.002Z,18.10
2022-09-10T20:24:07.437Z,18.10
2022-09-10T20:26:37.983Z,18.10
2022-09-10T20:29:10.305Z,18.10
2022-09-10T20:31:41.037Z,18.10
2022-09-10T20:34:12.332Z,18.00
2022-09-10T20:36:42.081Z,18.10
2022-09-10T20:39:11.426Z,18.00
2022-09-10T20:41:40.031Z,18.00
2022-09-10T20:44:11.017Z,18.00
2022-09-10T20:46:38.880Z,17.90
2022-09-10T20:49:06.679Z,17.90
2022-09-10T20:51:36.304Z,17.90
2022-09-10T20:54:05.440Z,17.90
2022-09-10T20:56:33.491Z,17.90
2022-09-10T20:59:01.846Z,17.80
2022-09-10T21:01:32.030Z,17.80
2022-09-10T21:04:01.518Z,17.80
2022-09-10T21:06:31.212Z,17.80
2022-09-10T21:09:00.108Z,17.80
2022-09-10T21:11:30.598Z,17.80
2022-09-10T21:13:59.992Z,17.80
2022-09-10T21:16:30.312Z,17.80
2022-09-10T21:19:00.698Z,17.70
2022-09-10T21:21:30.007Z,17.70
2022-09-10T21:23:59.159Z,17.70
2022-09-10T21:26:28.245Z,17.70
2022-09-10T21:28:58.551Z,17.70
2022-09-10T21:31:27.170Z,17.60
2022-09-10T21:34:02.681Z,17.60
2022-09-10T21:36:32.077Z,17.60
2022-09-10T21:39:02.067Z,17.60
2022-09-10T21:41:32.281Z,17.60
2022-09-10T21:44:01.397Z,17.60
2022-09-10T21:46:29.478Z,17.60
2022-09-10T21:48:59.390Z,17.50
2022-09-10T21:51:28.351Z,17.50
2022-09-10T21:53:58.127Z,17.50
2022-09-10T21:56:27.787Z,17.50
2022-09-10T21:58:56.821Z,17.50
2022-09-10T22:01:27.595Z,17.50
2022-09-10T22:03:59.589Z,17.50
2022-09-10T22:06:28.710Z,17.50
2022-09-10T22:08:58.872Z,17.50
2022-09-10T22:11:30.302Z,17.50
2022-09-10T22:14:00.939Z,17.50
2022-09-10T22:16:31.004Z,17.50
2022-09-10T22:19:02.050Z,17.40
2022-09-10T22:21:30.992Z,17.40
2022-09-10T22:23:58.828Z,17.40
2022-09-10T22:26:29.060Z,17.40
2022-09-10T22:28:59.266Z,17.40
2022-09-10T22:31:29.087Z,17.30
2022-09-10T22:33:58.702Z,17.30
2022-09-10T22:36:31.333Z,17.30
2022-09-10T22:39:01.004Z,17.30
2022-09-10T22:41:29.740Z,17.30
2022-09-10T22:43:58.051Z,17.30
2022-09-10T22:46:26.598Z,17.30
2022-09-10T22:48:55.331Z,17.30
2022-09-10T22:51:26.023Z,17.30
2022-09-10T22:53:56.386Z,17.30
2022-09-10T22:56:26.076Z,17.30
2022-09-10T22:58:55.505Z,17.30
2022-09-10T23:01:26.299Z,17.30
2022-09-10T23:03:56.431Z,17.30
2022-09-10T23:06:26.412Z,17.30
2022-09-10T23:08:57.713Z,17.30
2022-09-10T23:11:28.474Z,17.30
2022-09-10T23:13:58.599Z,17.20
2022-09-10T23:16:29.630Z,17.20
2022-09-10T23:18:59.163Z,17.20
2022-09-10T23:21:29.180Z,17.20
2022-09-10T23:24:00.240Z,17.20
2022-09-10T23:26:29.038Z,17.20
2022-09-10T23:29:00.328Z,17.20
2022-09-10T23:31:30.139Z,17.20
2022-09-10T23:33:59.672Z,17.20
2022-09-10T23:36:28.524Z,17.20
2022-09-10T23:38:57.981Z,17.20
2022-09-10T23:41:25.800Z,17.20
2022-09-10T23:43:54.033Z,17.20
2022-09-10T23:46:22.311Z,17.20
2022-09-10T23:48:50.280Z,17.20
2022-09-10T23:51:20.118Z,17.10
2022-09-10T23:53:48.802Z,17.20
2022-09-10T23:56:19.685Z,17.20
2022-09-10T23:58:48.068Z,17.20
